CheckWX is a tool to help pilots better visualize weather data.  It is not intended as a substitute for an official pre-flight weather briefing.

10:12:49 UTC

ZGKL TAF
Guilin Liangjiang International Airport
Guilin City, China
TAF ZGKL 200316Z 2006/2106 05002MPS 5000 -RA BR FEW009 SCT020 OVC033 TX08/2008Z TN04/2023Z TEMPO 2020/2024 2500 -TSRA FEW010 SCT020 BKN033 FEW033CB

Feb-20@
06:00 UTC

Feb-20 @ 06:00 UTC

Feb-21@
06:00 UTC

Feb-21 @ 06:00 UTC

TAF ZGKL 200316Z 2006/2106 05002MPS 5000 -RA BR FEW009 SCT020 OVC033 TX08/2008Z TN04/2023Z
Wind
  • 050° at 4 KTS
Visibility
5,005 meters
Conditions
Light Rain, Mist
Cloud Levels
  • Few at 900' AGL
  • Scattered at 2,000' AGL
  • Overcast at 3,300' AGL

Feb-20@
20:00 UTC

Feb-20 @ 20:00 UTC

Feb-21@
00:00 UTC

Feb-21 @ 00:00 UTC

TEMPO 2020/2024 2500 -TSRA FEW010 SCT020 BKN033 FEW033CB

Temporary

TemporaryChanges expected for less than half the time period

Visibility
2,494 meters
Conditions
Light Thunderstorm, Light Rain
Cloud Levels
  • Few at 1,000' AGL
  • Scattered at 2,000' AGL
  • Broken at 3,300' AGL